sensor_id;sensor_type;location;lat;lon;timestamp;temperature;humidity
33109;HTU21D;19481;51.118;6.940;2022-10-22T00:02:44;15.13;75.64
33109;HTU21D;19481;51.118;6.940;2022-10-22T00:07:47;15.17;75.65
33109;HTU21D;19481;51.118;6.940;2022-10-22T00:12:48;15.21;75.52
33109;HTU21D;19481;51.118;6.940;2022-10-22T00:17:50;15.25;75.59
33109;HTU21D;19481;51.118;6.940;2022-10-22T00:22:53;15.28;75.44
33109;HTU21D;19481;51.118;6.940;2022-10-22T00:27:54;15.31;75.46
33109;HTU21D;19481;51.118;6.940;2022-10-22T00:32:56;15.32;75.50
33109;HTU21D;19481;51.118;6.940;2022-10-22T00:37:59;15.31;75.46
33109;HTU21D;19481;51.118;6.940;2022-10-22T00:43:00;15.33;75.40
33109;HTU21D;19481;51.118;6.940;2022-10-22T00:48:04;15.34;75.47
33109;HTU21D;19481;51.118;6.940;2022-10-22T00:53:11;15.37;75.38
33109;HTU21D;19481;51.118;6.940;2022-10-22T00:58:14;15.40;75.33
33109;HTU21D;19481;51.118;6.940;2022-10-22T01:03:16;15.43;75.28
33109;HTU21D;19481;51.118;6.940;2022-10-22T01:08:24;15.45;75.17
33109;HTU21D;19481;51.118;6.940;2022-10-22T01:13:34;15.46;75.21
33109;HTU21D;19481;51.118;6.940;2022-10-22T01:18:46;15.44;75.28
33109;HTU21D;19481;51.118;6.940;2022-10-22T01:24:25;15.42;75.61
33109;HTU21D;19481;51.118;6.940;2022-10-22T01:29:33;15.42;75.32
33109;HTU21D;19481;51.118;6.940;2022-10-22T01:34:37;15.40;76.99
33109;HTU21D;19481;51.118;6.940;2022-10-22T01:39:41;15.40;75.58
33109;HTU21D;19481;51.118;6.940;2022-10-22T01:44:45;15.39;75.33
33109;HTU21D;19481;51.118;6.940;2022-10-22T01:50:03;15.43;75.24
33109;HTU21D;19481;51.118;6.940;2022-10-22T01:55:17;15.45;75.19
33109;HTU21D;19481;51.118;6.940;2022-10-22T02:00:21;15.43;75.25
33109;HTU21D;19481;51.118;6.940;2022-10-22T02:05:29;15.48;75.15
33109;HTU21D;19481;51.118;6.940;2022-10-22T02:10:36;15.45;75.24
33109;HTU21D;19481;51.118;6.940;2022-10-22T02:15:41;15.44;75.33
33109;HTU21D;19481;51.118;6.940;2022-10-22T02:20:44;15.43;75.43
33109;HTU21D;19481;51.118;6.940;2022-10-22T02:25:50;15.44;75.38
33109;HTU21D;19481;51.118;6.940;2022-10-22T02:31:00;15.44;75.36
33109;HTU21D;19481;51.118;6.940;2022-10-22T02:36:04;15.42;75.47
33109;HTU21D;19481;51.118;6.940;2022-10-22T02:41:06;15.39;75.53
33109;HTU21D;19481;51.118;6.940;2022-10-22T02:46:10;15.37;75.60
33109;HTU21D;19481;51.118;6.940;2022-10-22T02:51:11;15.36;75.61
33109;HTU21D;19481;51.118;6.940;2022-10-22T02:56:13;15.28;75.82
33109;HTU21D;19481;51.118;6.940;2022-10-22T03:01:16;15.19;75.97
33109;HTU21D;19481;51.118;6.940;2022-10-22T03:06:18;15.10;76.18
33109;HTU21D;19481;51.118;6.940;2022-10-22T03:11:19;15.01;76.37
33109;HTU21D;19481;51.118;6.940;2022-10-22T03:16:22;14.92;76.37
33109;HTU21D;19481;51.118;6.940;2022-10-22T03:21:28;14.85;76.51
33109;HTU21D;19481;51.118;6.940;2022-10-22T03:26:32;14.82;76.93
33109;HTU21D;19481;51.118;6.940;2022-10-22T03:31:35;14.75;76.76
33109;HTU21D;19481;51.118;6.940;2022-10-22T03:36:37;14.72;76.89
33109;HTU21D;19481;51.118;6.940;2022-10-22T03:41:39;14.68;76.96
33109;HTU21D;19481;51.118;6.940;2022-10-22T03:46:43;14.73;76.86
33109;HTU21D;19481;51.118;6.940;2022-10-22T03:51:45;14.70;76.78
33109;HTU21D;19481;51.118;6.940;2022-10-22T03:56:46;14.77;76.95
33109;HTU21D;19481;51.118;6.940;2022-10-22T04:01:49;14.78;76.67
33109;HTU21D;19481;51.118;6.940;2022-10-22T04:06:51;14.82;76.68
33109;HTU21D;19481;51.118;6.940;2022-10-22T04:11:52;14.87;76.67
33109;HTU21D;19481;51.118;6.940;2022-10-22T04:16:55;14.91;76.55
33109;HTU21D;19481;51.118;6.940;2022-10-22T04:21:57;14.91;76.50
33109;HTU21D;19481;51.118;6.940;2022-10-22T04:26:59;14.89;76.63
33109;HTU21D;19481;51.118;6.940;2022-10-22T04:32:02;14.84;76.66
33109;HTU21D;19481;51.118;6.940;2022-10-22T04:37:03;14.79;77.02
33109;HTU21D;19481;51.118;6.940;2022-10-22T04:42:05;14.69;77.28
33109;HTU21D;19481;51.118;6.940;2022-10-22T04:47:08;14.59;77.32
33109;HTU21D;19481;51.118;6.940;2022-10-22T04:52:09;14.53;77.50
33109;HTU21D;19481;51.118;6.940;2022-10-22T04:57:11;14.45;77.59
33109;HTU21D;19481;51.118;6.940;2022-10-22T05:02:15;14.38;77.76
33109;HTU21D;19481;51.118;6.940;2022-10-22T05:07:17;14.33;78.30
33109;HTU21D;19481;51.118;6.940;2022-10-22T05:12:18;14.26;78.30
33109;HTU21D;19481;51.118;6.940;2022-10-22T05:17:21;14.22;78.53
33109;HTU21D;19481;51.118;6.940;2022-10-22T05:22:23;14.21;78.18
33109;HTU21D;19481;51.118;6.940;2022-10-22T05:27:25;14.20;78.43
33109;HTU21D;19481;51.118;6.940;2022-10-22T05:32:28;14.22;78.43
33109;HTU21D;19481;51.118;6.940;2022-10-22T05:37:29;14.21;78.65
33109;HTU21D;19481;51.118;6.940;2022-10-22T05:42:31;14.18;78.30
33109;HTU21D;19481;51.118;6.940;2022-10-22T05:47:34;14.09;78.27
33109;HTU21D;19481;51.118;6.940;2022-10-22T05:52:36;14.06;78.59
33109;HTU21D;19481;51.118;6.940;2022-10-22T05:57:38;14.06;78.65
33109;HTU21D;19481;51.118;6.940;2022-10-22T06:02:41;14.05;78.72
33109;HTU21D;19481;51.118;6.940;2022-10-22T06:07:43;14.07;78.92
33109;HTU21D;19481;51.118;6.940;2022-10-22T06:12:45;14.15;78.39
33109;HTU21D;19481;51.118;6.940;2022-10-22T06:17:48;14.29;78.14
33109;HTU21D;19481;51.118;6.940;2022-10-22T06:22:50;14.35;77.89
33109;HTU21D;19481;51.118;6.940;2022-10-22T06:27:51;14.39;77.69
33109;HTU21D;19481;51.118;6.940;2022-10-22T06:32:54;14.48;77.40
33109;HTU21D;19481;51.118;6.940;2022-10-22T06:37:56;14.57;77.21
33109;HTU21D;19481;51.118;6.940;2022-10-22T06:42:58;14.62;76.98
33109;HTU21D;19481;51.118;6.940;2022-10-22T06:48:01;14.72;77.11
33109;HTU21D;19481;51.118;6.940;2022-10-22T06:53:02;14.82;76.32
33109;HTU21D;19481;51.118;6.940;2022-10-22T06:58:04;14.83;76.37
33109;HTU21D;19481;51.118;6.940;2022-10-22T07:03:08;14.81;76.31
33109;HTU21D;19481;51.118;6.940;2022-10-22T07:08:12;14.87;76.18
33109;HTU21D;19481;51.118;6.940;2022-10-22T07:13:14;15.08;75.52
33109;HTU21D;19481;51.118;6.940;2022-10-22T07:18:17;15.54;74.33
33109;HTU21D;19481;51.118;6.940;2022-10-22T07:23:18;19.73;60.75
33109;HTU21D;19481;51.118;6.940;2022-10-22T07:28:20;21.97;57.16
33109;HTU21D;19481;51.118;6.940;2022-10-22T07:33:23;22.33;59.06
33109;HTU21D;19481;51.118;6.940;2022-10-22T07:38:25;23.35;58.93
33109;HTU21D;19481;51.118;6.940;2022-10-22T07:43:26;23.10;61.66
33109;HTU21D;19481;51.118;6.940;2022-10-22T07:48:29;23.73;59.63
33109;HTU21D;19481;51.118;6.940;2022-10-22T07:53:31;21.02;69.94
33109;HTU21D;19481;51.118;6.940;2022-10-22T07:58:33;19.86;72.43
33109;HTU21D;19481;51.118;6.940;2022-10-22T08:03:37;20.26;68.75
33109;HTU21D;19481;51.118;6.940;2022-10-22T08:08:39;19.05;71.24
33109;HTU21D;19481;51.118;6.940;2022-10-22T08:13:40;17.98;73.15
33109;HTU21D;19481;51.118;6.940;2022-10-22T08:18:44;17.48;72.79
33109;HTU21D;19481;51.118;6.940;2022-10-22T08:23:45;17.24;72.01
33109;HTU21D;19481;51.118;6.940;2022-10-22T08:28:47;17.13;71.26
33109;HTU21D;19481;51.118;6.940;2022-10-22T08:33:50;17.03;70.81
33109;HTU21D;19481;51.118;6.940;2022-10-22T08:38:51;16.90;70.55
33109;HTU21D;19481;51.118;6.940;2022-10-22T08:44:05;16.94;68.55
33109;HTU21D;19481;51.118;6.940;2022-10-22T08:49:18;16.94;69.56
33109;HTU21D;19481;51.118;6.940;2022-10-22T08:54:32;16.94;68.46
33109;HTU21D;19481;51.118;6.940;2022-10-22T08:59:41;16.98;68.00
33109;HTU21D;19481;51.118;6.940;2022-10-22T09:04:51;17.02;68.26
33109;HTU21D;19481;51.118;6.940;2022-10-22T09:09:56;17.07;68.20
33109;HTU21D;19481;51.118;6.940;2022-10-22T09:14:59;17.21;67.81
33109;HTU21D;19481;51.118;6.940;2022-10-22T09:20:08;17.29;67.10
33109;HTU21D;19481;51.118;6.940;2022-10-22T09:25:20;17.26;67.28
33109;HTU21D;19481;51.118;6.940;2022-10-22T09:30:24;17.30;67.45
33109;HTU21D;19481;51.118;6.940;2022-10-22T09:35:27;17.37;67.30
33109;HTU21D;19481;51.118;6.940;2022-10-22T09:40:42;17.32;64.72
33109;HTU21D;19481;51.118;6.940;2022-10-22T09:45:44;17.26;67.43
33109;HTU21D;19481;51.118;6.940;2022-10-22T09:50:49;17.44;66.33
33109;HTU21D;19481;51.118;6.940;2022-10-22T09:55:58;17.36;67.14
33109;HTU21D;19481;51.118;6.940;2022-10-22T10:00:59;17.37;66.77
33109;HTU21D;19481;51.118;6.940;2022-10-22T10:06:03;17.36;66.91
33109;HTU21D;19481;51.118;6.940;2022-10-22T10:11:10;17.31;66.90
33109;HTU21D;19481;51.118;6.940;2022-10-22T10:16:27;17.34;64.56
33109;HTU21D;19481;51.118;6.940;2022-10-22T10:21:38;17.41;66.31
33109;HTU21D;19481;51.118;6.940;2022-10-22T10:26:51;17.46;64.53
33109;HTU21D;19481;51.118;6.940;2022-10-22T10:32:05;17.55;63.89
33109;HTU21D;19481;51.118;6.940;2022-10-22T10:37:17;17.55;65.72
33109;HTU21D;19481;51.118;6.940;2022-10-22T10:42:27;17.59;65.93
33109;HTU21D;19481;51.118;6.940;2022-10-22T10:47:44;17.56;63.56
33109;HTU21D;19481;51.118;6.940;2022-10-22T10:52:57;17.53;64.49
33109;HTU21D;19481;51.118;6.940;2022-10-22T10:58:09;17.52;65.41
33109;HTU21D;19481;51.118;6.940;2022-10-22T11:09:02;17.70;65.08
33109;HTU21D;19481;51.118;6.940;2022-10-22T11:14:12;17.61;65.30
33109;HTU21D;19481;51.118;6.940;2022-10-22T11:19:18;17.55;65.30
33109;HTU21D;19481;51.118;6.940;2022-10-22T11:24:25;17.63;64.85
33109;HTU21D;19481;51.118;6.940;2022-10-22T11:29:33;17.55;63.98
33109;HTU21D;19481;51.118;6.940;2022-10-22T11:34:44;17.52;61.70
33109;HTU21D;19481;51.118;6.940;2022-10-22T11:39:50;17.54;64.37
33109;HTU21D;19481;51.118;6.940;2022-10-22T11:45:01;17.58;63.99
33109;HTU21D;19481;51.118;6.940;2022-10-22T11:50:17;17.56;62.19
33109;HTU21D;19481;51.118;6.940;2022-10-22T11:55:42;17.61;60.44
33109;HTU21D;19481;51.118;6.940;2022-10-22T12:00:47;17.58;64.18
33109;HTU21D;19481;51.118;6.940;2022-10-22T12:06:04;17.54;62.05
33109;HTU21D;19481;51.118;6.940;2022-10-22T12:11:19;17.76;62.86
33109;HTU21D;19481;51.118;6.940;2022-10-22T12:16:23;17.90;61.98
33109;HTU21D;19481;51.118;6.940;2022-10-22T12:21:25;18.12;62.44
33109;HTU21D;19481;51.118;6.940;2022-10-22T12:26:30;18.30;60.88
33109;HTU21D;19481;51.118;6.940;2022-10-22T12:31:35;18.52;61.86
33109;HTU21D;19481;51.118;6.940;2022-10-22T12:36:37;18.61;62.02
33109;HTU21D;19481;51.118;6.940;2022-10-22T12:41:41;18.70;61.81
33109;HTU21D;19481;51.118;6.940;2022-10-22T12:46:44;18.80;61.82
33109;HTU21D;19481;51.118;6.940;2022-10-22T12:51:48;18.96;61.56
33109;HTU21D;19481;51.118;6.940;2022-10-22T12:56:51;18.79;62.14
33109;HTU21D;19481;51.118;6.940;2022-10-22T13:01:54;18.85;61.83
33109;HTU21D;19481;51.118;6.940;2022-10-22T13:07:15;19.12;59.28
33109;HTU21D;19481;51.118;6.940;2022-10-22T13:12:24;19.44;59.67
33109;HTU21D;19481;51.118;6.940;2022-10-22T13:17:37;19.20;57.58
33109;HTU21D;19481;51.118;6.940;2022-10-22T13:22:50;18.97;60.40
33109;HTU21D;19481;51.118;6.940;2022-10-22T13:27:55;19.35;58.45
33109;HTU21D;19481;51.118;6.940;2022-10-22T13:32:59;19.57;58.87
33109;HTU21D;19481;51.118;6.940;2022-10-22T13:38:01;19.29;59.71
33109;HTU21D;19481;51.118;6.940;2022-10-22T13:43:04;19.55;58.70
33109;HTU21D;19481;51.118;6.940;2022-10-22T13:48:09;19.31;59.25
33109;HTU21D;19481;51.118;6.940;2022-10-22T13:53:15;19.61;58.56
33109;HTU21D;19481;51.118;6.940;2022-10-22T13:58:20;19.09;60.14
33109;HTU21D;19481;51.118;6.940;2022-10-22T14:03:26;19.18;59.80
33109;HTU21D;19481;51.118;6.940;2022-10-22T14:08:28;19.41;59.18
33109;HTU21D;19481;51.118;6.940;2022-10-22T14:13:31;19.27;59.66
33109;HTU21D;19481;51.118;6.940;2022-10-22T14:18:33;19.32;59.51
33109;HTU21D;19481;51.118;6.940;2022-10-22T14:23:35;19.94;57.64
33109;HTU21D;19481;51.118;6.940;2022-10-22T14:28:38;20.35;55.71
33109;HTU21D;19481;51.118;6.940;2022-10-22T14:33:40;22.95;48.11
33109;HTU21D;19481;51.118;6.940;2022-10-22T14:38:42;20.91;54.63
33109;HTU21D;19481;51.118;6.940;2022-10-22T14:43:46;19.50;59.28
33109;HTU21D;19481;51.118;6.940;2022-10-22T14:48:48;19.15;60.18
33109;HTU21D;19481;51.118;6.940;2022-10-22T14:53:50;19.07;60.16
33109;HTU21D;19481;51.118;6.940;2022-10-22T14:58:53;19.01;60.16
33109;HTU21D;19481;51.118;6.940;2022-10-22T15:03:54;19.06;59.79
33109;HTU21D;19481;51.118;6.940;2022-10-22T15:08:56;19.23;59.22
33109;HTU21D;19481;51.118;6.940;2022-10-22T15:13:59;19.09;59.61
33109;HTU21D;19481;51.118;6.940;2022-10-22T15:19:01;18.95;59.93
33109;HTU21D;19481;51.118;6.940;2022-10-22T15:24:03;18.83;59.58
33109;HTU21D;19481;51.118;6.940;2022-10-22T15:29:08;18.64;60.46
33109;HTU21D;19481;51.118;6.940;2022-10-22T15:34:10;18.50;60.80
33109;HTU21D;19481;51.118;6.940;2022-10-22T15:39:12;18.30;61.14
33109;HTU21D;19481;51.118;6.940;2022-10-22T15:44:16;18.18;61.37
33109;HTU21D;19481;51.118;6.940;2022-10-22T15:49:18;18.11;61.47
33109;HTU21D;19481;51.118;6.940;2022-10-22T15:54:22;18.11;61.35
33109;HTU21D;19481;51.118;6.940;2022-10-22T15:59:25;18.08;61.41
33109;HTU21D;19481;51.118;6.940;2022-10-22T16:04:27;17.98;61.55
33109;HTU21D;19481;51.118;6.940;2022-10-22T16:09:29;17.74;62.42
33109;HTU21D;19481;51.118;6.940;2022-10-22T16:14:32;17.45;63.45
33109;HTU21D;19481;51.118;6.940;2022-10-22T16:19:33;17.24;64.05
33109;HTU21D;19481;51.118;6.940;2022-10-22T16:24:35;17.00;64.73
33109;HTU21D;19481;51.118;6.940;2022-10-22T16:29:41;16.79;65.23
33109;HTU21D;19481;51.118;6.940;2022-10-22T16:34:43;16.89;64.41
33109;HTU21D;19481;51.118;6.940;2022-10-22T16:39:45;16.52;65.59
33109;HTU21D;19481;51.118;6.940;2022-10-22T16:44:48;16.27;66.19
33109;HTU21D;19481;51.118;6.940;2022-10-22T16:49:49;16.13;66.41
33109;HTU21D;19481;51.118;6.940;2022-10-22T16:54:51;15.99;66.69
33109;HTU21D;19481;51.118;6.940;2022-10-22T16:59:54;15.95;66.67
33109;HTU21D;19481;51.118;6.940;2022-10-22T17:04:55;15.93;66.62
33109;HTU21D;19481;51.118;6.940;2022-10-22T17:09:57;16.10;65.87
33109;HTU21D;19481;51.118;6.940;2022-10-22T17:15:02;16.17;65.40
33109;HTU21D;19481;51.118;6.940;2022-10-22T17:20:05;16.13;65.38
33109;HTU21D;19481;51.118;6.940;2022-10-22T17:25:11;16.00;65.77
33109;HTU21D;19481;51.118;6.940;2022-10-22T17:30:16;15.98;65.59
33109;HTU21D;19481;51.118;6.940;2022-10-22T17:35:18;15.89;65.65
33109;HTU21D;19481;51.118;6.940;2022-10-22T17:40:20;15.90;65.58
33109;HTU21D;19481;51.118;6.940;2022-10-22T17:45:23;15.89;65.48
33109;HTU21D;19481;51.118;6.940;2022-10-22T17:50:25;15.84;65.61
33109;HTU21D;19481;51.118;6.940;2022-10-22T17:55:26;15.77;65.81
33109;HTU21D;19481;51.118;6.940;2022-10-22T18:00:30;15.70;65.98
33109;HTU21D;19481;51.118;6.940;2022-10-22T18:05:34;15.62;66.19
33109;HTU21D;19481;51.118;6.940;2022-10-22T18:10:38;15.62;66.25
33109;HTU21D;19481;51.118;6.940;2022-10-22T18:15:41;15.68;66.11
33109;HTU21D;19481;51.118;6.940;2022-10-22T18:20:47;15.69;66.07
33109;HTU21D;19481;51.118;6.940;2022-10-22T18:25:49;15.59;66.33
33109;HTU21D;19481;51.118;6.940;2022-10-22T18:30:51;15.52;66.44
33109;HTU21D;19481;51.118;6.940;2022-10-22T18:35:53;15.46;66.59
33109;HTU21D;19481;51.118;6.940;2022-10-22T18:40:56;15.42;66.75
33109;HTU21D;19481;51.118;6.940;2022-10-22T18:45:59;15.12;67.76
33109;HTU21D;19481;51.118;6.940;2022-10-22T18:51:02;14.95;68.41
33109;HTU21D;19481;51.118;6.940;2022-10-22T18:56:05;14.80;68.77
33109;HTU21D;19481;51.118;6.940;2022-10-22T19:01:09;14.75;68.69
33109;HTU21D;19481;51.118;6.940;2022-10-22T19:06:12;14.84;68.20
33109;HTU21D;19481;51.118;6.940;2022-10-22T19:11:15;14.80;68.14
33109;HTU21D;19481;51.118;6.940;2022-10-22T19:16:20;14.78;68.00
33109;HTU21D;19481;51.118;6.940;2022-10-22T19:21:23;14.71;68.04
33109;HTU21D;19481;51.118;6.940;2022-10-22T19:26:26;14.67;68.13
33109;HTU21D;19481;51.118;6.940;2022-10-22T19:31:29;14.63;68.21
33109;HTU21D;19481;51.118;6.940;2022-10-22T19:36:31;14.51;68.53
33109;HTU21D;19481;51.118;6.940;2022-10-22T19:41:34;14.51;68.49
33109;HTU21D;19481;51.118;6.940;2022-10-22T19:46:37;14.51;68.45
33109;HTU21D;19481;51.118;6.940;2022-10-22T19:51:38;14.58;68.24
33109;HTU21D;19481;51.118;6.940;2022-10-22T19:56:40;14.66;67.99
33109;HTU21D;19481;51.118;6.940;2022-10-22T20:01:43;14.74;67.83
33109;HTU21D;19481;51.118;6.940;2022-10-22T20:06:45;14.81;67.76
33109;HTU21D;19481;51.118;6.940;2022-10-22T20:11:46;14.84;67.78
33109;HTU21D;19481;51.118;6.940;2022-10-22T20:16:49;14.92;67.62
33109;HTU21D;19481;51.118;6.940;2022-10-22T20:21:51;14.95;67.66
33109;HTU21D;19481;51.118;6.940;2022-10-22T20:26:54;14.92;67.91
33109;HTU21D;19481;51.118;6.940;2022-10-22T20:31:57;14.91;67.95
33109;HTU21D;19481;51.118;6.940;2022-10-22T20:36:59;14.94;68.04
33109;HTU21D;19481;51.118;6.940;2022-10-22T20:42:02;14.98;67.94
33109;HTU21D;19481;51.118;6.940;2022-10-22T20:47:05;14.99;67.98
33109;HTU21D;19481;51.118;6.940;2022-10-22T20:52:08;15.02;67.98
33109;HTU21D;19481;51.118;6.940;2022-10-22T20:57:10;15.02;68.14
33109;HTU21D;19481;51.118;6.940;2022-10-22T21:02:14;15.03;68.30
33109;HTU21D;19481;51.118;6.940;2022-10-22T21:07:15;15.00;68.51
33109;HTU21D;19481;51.118;6.940;2022-10-22T21:12:17;14.98;68.54
33109;HTU21D;19481;51.118;6.940;2022-10-22T21:17:20;15.00;68.55
33109;HTU21D;19481;51.118;6.940;2022-10-22T21:22:22;15.01;68.58
33109;HTU21D;19481;51.118;6.940;2022-10-22T21:27:23;14.99;68.78
33109;HTU21D;19481;51.118;6.940;2022-10-22T21:32:26;14.93;68.91
33109;HTU21D;19481;51.118;6.940;2022-10-22T21:37:28;14.91;68.94
33109;HTU21D;19481;51.118;6.940;2022-10-22T21:42:30;14.89;69.07
33109;HTU21D;19481;51.118;6.940;2022-10-22T21:47:33;14.85;69.20
33109;HTU21D;19481;51.118;6.940;2022-10-22T21:52:34;14.84;69.29
33109;HTU21D;19481;51.118;6.940;2022-10-22T21:57:36;14.79;69.41
33109;HTU21D;19481;51.118;6.940;2022-10-22T22:02:39;14.73;69.52
33109;HTU21D;19481;51.118;6.940;2022-10-22T22:07:40;14.67;69.84
33109;HTU21D;19481;51.118;6.940;2022-10-22T22:12:42;14.62;69.94
33109;HTU21D;19481;51.118;6.940;2022-10-22T22:17:45;14.57;70.03
33109;HTU21D;19481;51.118;6.940;2022-10-22T22:22:47;14.52;70.17
33109;HTU21D;19481;51.118;6.940;2022-10-22T22:27:48;14.36;70.56
33109;HTU21D;19481;51.118;6.940;2022-10-22T22:32:51;14.27;70.81
33109;HTU21D;19481;51.118;6.940;2022-10-22T22:37:53;14.18;71.11
33109;HTU21D;19481;51.118;6.940;2022-10-22T22:42:54;14.11;71.24
33109;HTU21D;19481;51.118;6.940;2022-10-22T22:47:57;14.11;71.10
33109;HTU21D;19481;51.118;6.940;2022-10-22T22:52:59;14.03;71.25
33109;HTU21D;19481;51.118;6.940;2022-10-22T22:58:00;13.89;71.58
33109;HTU21D;19481;51.118;6.940;2022-10-22T23:03:03;13.66;72.13
33109;HTU21D;19481;51.118;6.940;2022-10-22T23:08:05;13.59;72.38
33109;HTU21D;19481;51.118;6.940;2022-10-22T23:13:06;13.63;72.21
33109;HTU21D;19481;51.118;6.940;2022-10-22T23:18:09;13.59;72.17
33109;HTU21D;19481;51.118;6.940;2022-10-22T23:23:11;13.52;72.29
33109;HTU21D;19481;51.118;6.940;2022-10-22T23:28:12;13.44;72.51
33109;HTU21D;19481;51.118;6.940;2022-10-22T23:33:15;13.27;72.78
33109;HTU21D;19481;51.118;6.940;2022-10-22T23:38:18;13.17;73.02
33109;HTU21D;19481;51.118;6.940;2022-10-22T23:43:20;13.16;72.90
33109;HTU21D;19481;51.118;6.940;2022-10-22T23:48:23;13.15;72.70
33109;HTU21D;19481;51.118;6.940;2022-10-22T23:53:24;12.99;73.02
33109;HTU21D;19481;51.118;6.940;2022-10-22T23:58:26;12.95;73.09
